createdAt,value
2022-12-01T00:04:04.855Z,5.55
2022-12-01T00:09:12.143Z,6.97
2022-12-01T00:14:17.927Z,4.75
2022-12-01T00:19:25.160Z,6.65
2022-12-01T00:24:28.605Z,7.43
2022-12-01T00:29:32.011Z,5.25
2022-12-01T00:34:35.381Z,6.72
2022-12-01T00:39:40.024Z,7.80
2022-12-01T00:44:43.299Z,9.40
2022-12-01T00:49:47.280Z,6.18
2022-12-01T00:54:51.315Z,8.63
2022-12-01T00:59:54.590Z,10.75
2022-12-01T01:10:01.107Z,8.98
2022-12-01T01:15:07.687Z,8.60
2022-12-01T01:20:11.382Z,9.77
2022-12-01T01:25:15.564Z,6.30
2022-12-01T01:30:20.549Z,7.65
2022-12-01T01:35:24.027Z,5.15
2022-12-01T01:40:27.347Z,6.75
2022-12-01T01:45:30.879Z,6.07
2022-12-01T01:50:35.645Z,6.22
2022-12-01T01:55:39.406Z,10.63
2022-12-01T02:00:44.983Z,7.75
2022-12-01T02:05:48.625Z,8.45
2022-12-01T02:11:23.294Z,13.35
2022-12-01T02:16:49.095Z,4.07
2022-12-01T02:22:23.972Z,7.47
2022-12-01T02:27:48.415Z,5.13
2022-12-01T02:33:00.348Z,11.30
2022-12-01T02:38:09.913Z,6.50
2022-12-01T02:43:27.777Z,8.88
2022-12-01T02:48:35.116Z,5.25
2022-12-01T02:53:38.603Z,7.60
2022-12-01T02:58:44.951Z,10.20
2022-12-01T03:04:01.262Z,8.90
2022-12-01T03:09:07.323Z,6.93
2022-12-01T03:14:31.127Z,6.45
2022-12-01T03:19:44.868Z,5.75
2022-12-01T03:24:50.166Z,7.25
2022-12-01T03:29:59.304Z,6.65
2022-12-01T03:35:11.626Z,7.75
2022-12-01T03:40:19.121Z,3.65
2022-12-01T03:45:33.696Z,7.93
2022-12-01T03:50:56.027Z,8.88
2022-12-01T03:56:03.853Z,8.60
2022-12-01T04:01:08.846Z,5.93
2022-12-01T04:06:13.725Z,4.22
2022-12-01T04:11:17.245Z,4.47
2022-12-01T04:16:20.794Z,7.47
2022-12-01T04:21:24.548Z,3.65
2022-12-01T04:26:33.742Z,6.38
2022-12-01T04:31:37.483Z,7.18
2022-12-01T04:36:41.275Z,8.48
2022-12-01T04:41:45.512Z,5.55
2022-12-01T04:46:48.879Z,4.53
2022-12-01T04:51:53.075Z,5.78
2022-12-01T04:56:56.485Z,7.25
2022-12-01T05:02:00.390Z,7.25
2022-12-01T05:07:06.502Z,9.73
2022-12-01T05:12:09.919Z,10.02
2022-12-01T05:17:13.471Z,7.35
2022-12-01T05:22:16.758Z,11.10
2022-12-01T05:27:20.231Z,7.55
2022-12-01T05:32:23.883Z,11.60
2022-12-01T05:37:27.064Z,14.68
2022-12-01T05:47:33.558Z,16.88
2022-12-01T05:57:40.651Z,20.55
2022-12-01T06:02:44.366Z,17.88
2022-12-01T06:07:49.447Z,16.90
2022-12-01T06:12:52.731Z,21.45
2022-12-01T06:17:59.595Z,18.80
2022-12-01T06:23:03.467Z,23.55
2022-12-01T06:28:06.909Z,24.42
2022-12-01T06:33:10.314Z,24.25
2022-12-01T06:38:13.849Z,24.05
2022-12-01T06:43:17.211Z,14.00
2022-12-01T06:48:21.759Z,22.77
2022-12-01T06:53:25.317Z,17.20
2022-12-01T06:58:29.029Z,17.45
2022-12-01T07:03:32.610Z,24.17
2022-12-01T07:08:36.314Z,17.83
2022-12-01T07:13:41.414Z,17.98
2022-12-01T07:18:44.757Z,20.27
2022-12-01T07:23:48.311Z,22.77
2022-12-01T07:28:53.441Z,22.40
2022-12-01T07:33:57.102Z,24.77
2022-12-01T07:39:04.683Z,22.38
2022-12-01T07:44:10.970Z,27.20
2022-12-01T07:49:14.243Z,22.17
2022-12-01T07:54:17.857Z,21.08
2022-12-01T07:59:21.282Z,18.00
2022-12-01T08:04:24.774Z,23.15
2022-12-01T08:09:28.258Z,78.47
2022-12-01T08:14:31.755Z,22.63
2022-12-01T08:19:35.465Z,56.03
2022-12-01T08:24:39.220Z,24.80
2022-12-01T08:29:44.906Z,28.45
2022-12-01T08:34:53.307Z,22.27
2022-12-01T08:39:57.934Z,19.42
2022-12-01T08:45:01.332Z,27.08
2022-12-01T08:50:13.302Z,31.17
2022-12-01T08:55:31.012Z,19.08
2022-12-01T09:00:42.587Z,21.80
2022-12-01T09:05:45.798Z,19.15
2022-12-01T09:10:53.193Z,20.25
2022-12-01T09:16:07.689Z,23.05
2022-12-01T09:21:18.528Z,22.08
2022-12-01T09:26:22.238Z,24.08
2022-12-01T09:31:26.471Z,19.98
2022-12-01T09:36:31.583Z,23.70
2022-12-01T09:41:44.513Z,21.63
2022-12-01T09:46:56.303Z,16.98
2022-12-01T09:52:00.414Z,20.73
2022-12-01T09:57:04.317Z,17.80
2022-12-01T10:02:26.579Z,21.83
2022-12-01T10:08:05.928Z,22.27
2022-12-01T10:13:23.289Z,18.13
2022-12-01T10:18:32.398Z,16.23
2022-12-01T10:24:09.929Z,14.52
2022-12-01T10:29:31.601Z,21.88
2022-12-01T10:34:38.822Z,27.23
2022-12-01T10:39:44.714Z,15.88
2022-12-01T10:44:48.219Z,12.52
2022-12-01T10:49:53.146Z,18.80
2022-12-01T10:54:58.150Z,11.65
2022-12-01T11:00:07.209Z,15.70
2022-12-01T11:05:24.024Z,54.47
2022-12-01T11:10:30.732Z,33.25
2022-12-01T11:15:40.053Z,9.40
2022-12-01T11:20:43.746Z,13.75
2022-12-01T11:25:56.183Z,15.82
2022-12-01T11:31:02.902Z,9.27
2022-12-01T11:36:10.611Z,14.90
2022-12-01T11:41:37.774Z,13.90
2022-12-01T11:46:50.199Z,9.10
2022-12-01T11:52:17.601Z,15.38
2022-12-01T11:57:33.557Z,13.77
2022-12-01T12:03:06.944Z,13.90
2022-12-01T12:08:31.621Z,12.82
2022-12-01T12:14:01.209Z,15.02
2022-12-01T12:19:33.677Z,23.23
2022-12-01T12:25:10.013Z,11.60
2022-12-01T12:30:23.834Z,16.90
2022-12-01T12:35:58.282Z,17.73
2022-12-01T12:41:22.757Z,15.35
2022-12-01T12:46:37.728Z,21.70
2022-12-01T12:52:22.056Z,24.05
2022-12-01T12:57:44.716Z,27.58
2022-12-01T13:03:10.252Z,22.60
2022-12-01T13:08:23.810Z,24.55
2022-12-01T13:13:46.330Z,27.77
2022-12-01T13:19:13.621Z,30.35
2022-12-01T13:24:23.313Z,24.83
2022-12-01T13:29:40.885Z,19.45
2022-12-01T13:34:48.475Z,21.63
2022-12-01T13:39:55.091Z,22.60
2022-12-01T13:45:09.960Z,26.90
2022-12-01T13:50:41.032Z,22.73
2022-12-01T13:56:24.509Z,20.30
2022-12-01T14:01:28.000Z,22.63
2022-12-01T14:06:40.866Z,22.33
2022-12-01T14:11:59.669Z,20.38
2022-12-01T14:17:03.756Z,20.25
2022-12-01T14:22:33.882Z,19.88
2022-12-01T14:27:43.176Z,21.33
2022-12-01T14:32:46.457Z,21.17
2022-12-01T14:37:50.534Z,21.80
2022-12-01T14:42:57.254Z,20.10
2022-12-01T14:48:04.440Z,23.80
2022-12-01T14:53:36.612Z,22.60
2022-12-01T15:03:58.970Z,19.90
2022-12-01T15:14:48.112Z,18.60
2022-12-01T15:19:52.217Z,17.33
2022-12-01T15:25:16.033Z,23.35
2022-12-01T15:35:23.878Z,19.10
2022-12-01T15:45:57.877Z,18.67
2022-12-01T15:51:07.386Z,16.67
2022-12-01T15:56:12.385Z,20.08
2022-12-01T16:01:19.324Z,13.57
2022-12-01T16:06:27.432Z,18.45
2022-12-01T16:11:31.388Z,14.25
2022-12-01T16:16:46.631Z,13.10
2022-12-01T16:21:50.023Z,11.23
2022-12-01T16:26:59.322Z,15.50
2022-12-01T16:32:38.918Z,11.25
2022-12-01T16:37:42.720Z,8.98
2022-12-01T16:42:46.769Z,10.45
2022-12-01T16:47:50.056Z,10.70
2022-12-01T16:52:53.483Z,9.95
2022-12-01T16:57:56.907Z,10.93
2022-12-01T17:03:01.116Z,9.13
2022-12-01T17:08:05.154Z,10.30
2022-12-01T17:13:10.768Z,11.23
2022-12-01T17:18:15.756Z,11.10
2022-12-01T17:23:18.976Z,9.13
2022-12-01T17:28:22.566Z,13.15
2022-12-01T17:33:25.909Z,15.15
2022-12-01T17:38:29.404Z,15.88
2022-12-01T17:43:34.848Z,7.35
2022-12-01T17:48:46.262Z,12.43
2022-12-01T17:53:49.762Z,13.90
2022-12-01T17:58:53.108Z,16.17
2022-12-01T18:03:57.837Z,12.73
2022-12-01T18:09:01.214Z,12.95
2022-12-01T18:14:04.637Z,11.52
2022-12-01T18:19:10.063Z,13.25
2022-12-01T18:24:13.542Z,19.02
2022-12-01T18:29:20.165Z,15.38
2022-12-01T18:34:24.147Z,16.75
2022-12-01T18:39:27.898Z,15.52
2022-12-01T18:44:33.357Z,12.70
2022-12-01T18:49:36.772Z,17.60
2022-12-01T18:54:40.517Z,16.05
2022-12-01T18:59:43.910Z,14.00
2022-12-01T19:04:47.630Z,9.70
2022-12-01T19:09:52.156Z,10.07
2022-12-01T19:14:55.847Z,7.40
2022-12-01T19:20:00.422Z,10.73
2022-12-01T19:25:03.917Z,14.43
2022-12-01T19:30:10.989Z,8.27
2022-12-01T19:35:14.681Z,10.80
2022-12-01T19:40:19.318Z,13.00
2022-12-01T19:45:23.035Z,11.35
2022-12-01T19:50:28.463Z,15.18
2022-12-01T19:55:32.376Z,17.73
2022-12-01T20:00:35.753Z,24.67
2022-12-01T20:05:39.508Z,28.70
2022-12-01T20:10:47.865Z,25.42
2022-12-01T20:15:51.243Z,24.05
2022-12-01T20:21:11.470Z,24.35
2022-12-01T20:26:16.339Z,24.30
2022-12-01T20:31:25.540Z,26.20
2022-12-01T20:36:29.494Z,23.92
2022-12-01T20:41:32.959Z,22.52
2022-12-01T20:46:38.545Z,22.10
2022-12-01T20:51:42.140Z,20.80
2022-12-01T20:56:46.013Z,21.85
2022-12-01T21:01:49.718Z,22.20
2022-12-01T21:06:58.520Z,24.45
2022-12-01T21:12:03.528Z,22.27
2022-12-01T21:17:28.819Z,24.65
2022-12-01T21:22:32.330Z,24.17
2022-12-01T21:27:36.436Z,24.42
2022-12-01T21:32:43.879Z,25.45
2022-12-01T21:37:49.542Z,19.63
2022-12-01T21:42:53.431Z,23.77
2022-12-01T21:48:17.535Z,26.48
2022-12-01T21:53:22.612Z,20.98
2022-12-01T21:58:28.655Z,21.33
2022-12-01T22:03:43.507Z,20.80
2022-12-01T22:08:50.294Z,27.83
2022-12-01T22:14:13.028Z,16.85
2022-12-01T22:19:28.704Z,21.23
2022-12-01T22:24:38.071Z,25.42
2022-12-01T22:29:46.160Z,23.20
2022-12-01T22:34:53.694Z,25.60
2022-12-01T22:39:57.768Z,27.98
2022-12-01T22:45:23.674Z,24.98
2022-12-01T22:50:31.731Z,26.58
2022-12-01T22:55:35.232Z,25.15
2022-12-01T23:00:39.365Z,26.55
2022-12-01T23:05:42.695Z,24.80
2022-12-01T23:10:46.130Z,28.15
2022-12-01T23:15:52.884Z,23.55
2022-12-01T23:20:58.975Z,28.65
2022-12-01T23:26:07.179Z,25.92
2022-12-01T23:31:10.869Z,27.83
2022-12-01T23:36:19.256Z,25.42
2022-12-01T23:41:31.225Z,25.70
2022-12-01T23:46:34.625Z,23.73
2022-12-01T23:51:40.412Z,28.65
2022-12-01T23:56:45.856Z,27.77
